Quartzsite, Arizona
Current Conditions -  °F | °C
As of 2:52 PM on Sunday 25 Jan 2015 (Local Time) from KBLH Reporting Station
Clear Clear  
Wind Chill: 73°   Ceiling: Unl
Heat Index: 73°   Visibility: 10mi
Dew Point: 35°   Wind: 6mph
Humidity: 25%   Direction: 80°E
Pressure: 30.02"   Gusts: NA
Location:  33.67°N, 114.22°W
Report Text: KBLH 252152Z AUTO 08005KT 10SM CLR 23/02 A3002 RMK AO2 SLP160 T02280017
Loading
Personal Weather Stations






























Interactive Weather Map New forecast layout! Learn more

10-Day Weather Forecast

Advertisements
Track Severe Weather on mobile